Time;durP1;ratioP1;P1;durP2;ratioP2;P2;SDS_P1;SDS_P2;PMS_P1;PMS_P2;Temp;Humidity;BMP_temperature;BMP_pressure;BME280_temperature;BME280_humidity;BME280_pressure;Samples;Min_cycle;Max_cycle;Signal;HPM_P1;HPM_P2
2022/06/16 00:01:01;;;;;;;6.03;5.60;;;;;;;18.77;100.00;98643.50;4995552;28;20179;-54
2022/06/16 00:03:27;;;;;;;6.05;5.47;;;;;;;18.69;100.00;98647.84;4993933;28;20203;-54
2022/06/16 00:05:53;;;;;;;7.18;5.45;;;;;;;18.69;100.00;98634.75;4995630;28;20186;-54
2022/06/16 00:08:19;;;;;;;7.55;5.28;;;;;;;18.68;100.00;98626.06;4995343;28;20194;-54
2022/06/16 00:13:34;;;;;;;5.78;4.85;;;;;;;18.81;100.00;98636.16;4995163;28;20195;-54
2022/06/16 00:16:00;;;;;;;5.70;5.18;;;;;;;18.95;97.22;98636.44;4995262;28;20175;-54
2022/06/16 00:18:27;;;;;;;8.52;5.28;;;;;;;19.04;96.11;98630.31;4995374;28;20171;-54
2022/06/16 00:20:52;;;;;;;5.72;5.20;;;;;;;19.16;94.25;98629.09;4995106;28;20179;-54
2022/06/16 00:23:18;;;;;;;6.57;5.10;;;;;;;19.18;94.79;98631.56;4995049;28;20230;-54
2022/06/16 00:25:44;;;;;;;6.00;5.40;;;;;;;19.20;95.78;98640.09;4995129;28;20178;-54
2022/06/16 00:28:09;;;;;;;5.35;4.95;;;;;;;19.34;95.77;98642.19;4995184;28;20171;-54
2022/06/16 00:30:35;;;;;;;6.40;5.00;;;;;;;19.35;94.90;98635.97;5009926;28;20577;-54
2022/06/16 00:33:00;;;;;;;5.75;5.22;;;;;;;19.34;95.12;98648.25;4995052;28;20178;-54
2022/06/16 00:35:26;;;;;;;8.48;5.32;;;;;;;19.16;95.40;98644.81;4995100;28;20556;-54
2022/06/16 00:37:51;;;;;;;5.45;5.15;;;;;;;19.31;94.64;98647.75;4994750;28;20206;-54
2022/06/16 00:40:16;;;;;;;6.28;5.78;;;;;;;19.46;94.32;98641.78;4993559;28;20234;-54
2022/06/16 00:42:45;;;;;;;5.70;5.20;;;;;;;19.61;93.55;98649.91;4994693;28;20229;-55
2022/06/16 00:45:48;;;;;;;11.18;5.75;;;;;;;19.73;93.15;98651.28;4995042;28;20171;-55
2022/06/16 00:48:31;;;;;;;9.25;5.82;;;;;;;19.61;95.02;98656.00;4994866;28;20193;-55
2022/06/16 00:51:05;;;;;;;5.40;4.85;;;;;;;19.61;96.50;98652.53;4994493;28;20640;-55
2022/06/16 00:53:32;;;;;;;6.85;6.20;;;;;;;19.63;97.01;98655.81;4994682;28;20195;-53
2022/06/16 00:55:57;;;;;;;7.55;5.85;;;;;;;19.72;96.75;98654.91;4994566;28;20171;-54
2022/06/16 00:58:25;;;;;;;6.15;5.65;;;;;;;19.85;95.96;98655.28;4993164;28;20182;-54
2022/06/16 01:00:52;;;;;;;5.93;5.43;;;;;;;19.77;96.45;98661.31;4994380;28;20198;-54
2022/06/16 01:06:25;;;;;;;6.88;6.20;;;;;;;19.64;98.38;98644.34;4994668;28;20162;-54
2022/06/16 01:08:56;;;;;;;6.80;6.13;;;;;;;19.72;98.50;98647.84;4994339;28;20247;-54
2022/06/16 01:14:57;;;;;;;6.10;5.40;;;;;;;19.69;95.85;98642.09;4994369;28;20250;-54
2022/06/16 01:17:55;;;;;;;5.97;5.43;;;;;;;19.68;96.59;98635.16;4993380;28;20191;-54
2022/06/16 01:20:36;;;;;;;7.72;5.75;;;;;;;19.67;97.67;98633.53;4994195;28;20160;-54
2022/06/16 01:23:17;;;;;;;7.07;4.93;;;;;;;19.82;96.83;98624.09;4994226;28;20159;-54
2022/06/16 01:26:10;;;;;;;6.65;5.20;;;;;;;19.66;94.40;98624.84;4993851;28;20667;-54
2022/06/16 01:29:06;;;;;;;6.00;5.40;;;;;;;19.64;96.28;98625.97;4994138;28;20558;-53
2022/06/16 01:31:40;;;;;;;6.00;5.47;;;;;;;19.76;96.03;98627.34;4994013;28;20191;-54
2022/06/16 01:34:13;;;;;;;6.38;5.70;;;;;;;19.82;96.16;98621.47;4993959;28;20226;-53
2022/06/16 01:36:54;;;;;;;6.22;5.65;;;;;;;19.95;96.26;98634.97;4993692;28;20172;-55
2022/06/16 01:39:31;;;;;;;5.40;4.88;;;;;;;20.10;95.14;98636.06;4994084;28;20155;-54
2022/06/16 01:42:12;;;;;;;5.32;4.82;;;;;;;20.21;94.85;98643.63;4994546;28;20567;-55
2022/06/16 01:45:05;;;;;;;5.70;5.00;;;;;;;20.32;94.98;98651.22;4993738;28;20246;-55
2022/06/16 01:47:32;;;;;;;5.43;4.95;;;;;;;20.43;94.78;98645.69;4993818;28;20675;-55
2022/06/16 01:50:05;;;;;;;7.07;5.05;;;;;;;20.03;97.54;98640.25;4993252;28;20644;-55
2022/06/16 01:52:42;;;;;;;7.40;5.47;;;;;;;20.11;96.95;98654.28;4993525;28;20171;-53
2022/06/16 01:55:13;;;;;;;6.82;5.47;;;;;;;20.15;97.75;98655.63;4993268;28;20197;-54
2022/06/16 01:57:43;;;;;;;8.50;5.78;;;;;;;20.24;97.61;98653.84;4993489;28;20217;-54
2022/06/16 02:00:21;;;;;;;6.35;5.75;;;;;;;20.31;97.72;98657.47;4993331;28;20190;-54
2022/06/16 02:02:56;;;;;;;6.40;5.80;;;;;;;20.11;99.35;98661.34;4993354;28;20195;-54
2022/06/16 02:05:25;;;;;;;7.05;6.35;;;;;;;20.24;99.30;98659.09;4993171;28;20746;-54
2022/06/16 02:08:20;;;;;;;10.18;8.80;;;;;;;20.26;99.92;98652.72;4993117;28;20183;-54
2022/06/16 02:11:07;;;;;;;11.02;8.88;;;;;;;20.41;100.00;98655.53;4993146;28;20209;-54
2022/06/16 02:13:38;;;;;;;11.05;9.15;;;;;;;20.50;100.00;98654.56;4993033;28;20190;-54
2022/06/16 02:16:06;;;;;;;10.95;8.52;;;;;;;20.39;100.00;98653.06;4993566;28;20250;-54
2022/06/16 02:18:36;;;;;;;10.77;8.57;;;;;;;20.21;100.00;98647.09;4992952;28;20183;-54
2022/06/16 02:21:04;;;;;;;9.23;8.35;;;;;;;20.23;100.00;98641.69;4992908;28;20181;-54
2022/06/16 02:23:30;;;;;;;9.60;8.63;;;;;;;20.12;100.00;98644.59;4993453;28;20608;-54
2022/06/16 02:25:57;;;;;;;8.30;7.47;;;;;;;20.13;100.00;98635.75;4992850;28;20202;-54
2022/06/16 02:28:25;;;;;;;8.05;7.25;;;;;;;20.17;100.00;98637.06;4992872;28;20263;-54
2022/06/16 02:31:17;;;;;;;10.45;7.30;;;;;;;19.94;100.00;98635.97;4992811;28;20182;-53
2022/06/16 02:34:29;;;;;;;8.10;7.30;;;;;;;19.83;100.00;98641.50;4992736;28;20221;-54
2022/06/16 02:37:06;;;;;;;11.80;8.23;;;;;;;19.90;100.00;98650.38;4993042;28;20159;-54
2022/06/16 02:40:10;;;;;;;10.07;8.57;;;;;;;19.88;100.00;98653.16;4992940;28;20169;-54
2022/06/16 02:42:59;;;;;;;9.95;9.02;;;;;;;19.95;100.00;98653.38;4987036;28;20221;-54
2022/06/16 02:45:48;;;;;;;10.98;9.43;;;;;;;20.03;100.00;98664.72;4992685;28;20578;-54
2022/06/16 02:48:16;;;;;;;11.18;10.20;;;;;;;20.05;100.00;98662.75;4992648;28;20640;-53
2022/06/16 02:51:03;;;;;;;13.95;11.07;;;;;;;20.09;100.00;98673.81;4992581;28;20214;-53
2022/06/16 02:54:20;;;;;;;13.18;11.45;;;;;;;20.17;100.00;98668.59;4992573;28;20730;-53
2022/06/16 02:56:26;;;;;;;12.88;10.73;;;;;;;20.09;100.00;98673.81;4995441;28;20187;-54
2022/06/16 02:58:54;;;;;;;17.10;10.23;;;;;;;19.94;100.00;98678.00;4992588;28;20186;-54
2022/06/16 03:01:20;;;;;;;15.23;10.90;;;;;;;19.63;100.00;98679.44;4992569;28;20175;-54
2022/06/16 03:04:08;;;;;;;14.05;9.77;;;;;;;19.43;100.00;98675.38;4994767;28;20730;-54
2022/06/16 03:06:33;;;;;;;11.68;9.90;;;;;;;19.54;100.00;98670.72;4996394;28;20186;-54
2022/06/16 03:08:58;;;;;;;11.32;10.20;;;;;;;19.47;100.00;98674.13;4996425;28;20647;-53
2022/06/16 03:11:24;;;;;;;9.50;8.23;;;;;;;19.57;100.00;98680.06;4996626;28;20717;-53
2022/06/16 03:13:50;;;;;;;9.77;8.80;;;;;;;19.46;100.00;98681.16;4996236;28;20734;-53
2022/06/16 03:16:15;;;;;;;11.02;8.55;;;;;;;19.30;100.00;98674.97;4996501;28;20253;-53
2022/06/16 03:18:41;;;;;;;9.90;8.52;;;;;;;19.31;100.00;98676.63;4996280;28;20554;-54
2022/06/16 03:21:07;;;;;;;7.70;6.78;;;;;;;19.37;100.00;98673.38;4996253;28;20254;-54
2022/06/16 03:23:33;;;;;;;6.57;5.82;;;;;;;19.23;97.17;98660.81;4996385;28;20557;-54
2022/06/16 03:26:00;;;;;;;6.35;5.25;;;;;;;18.97;97.03;98662.53;4996070;28;20175;-54
2022/06/16 03:28:25;;;;;;;8.20;6.07;;;;;;;19.03;98.66;98661.94;4996352;28;20175;-53
2022/06/16 03:30:52;;;;;;;6.43;5.82;;;;;;;19.10;97.52;98660.34;4996286;28;20556;-53
2022/06/16 03:33:18;;;;;;;8.68;5.80;;;;;;;19.22;95.54;98660.00;4996977;28;20551;-53
2022/06/16 03:35:44;;;;;;;7.18;5.10;;;;;;;19.31;94.11;98668.75;4995952;28;20610;-53
2022/06/16 03:40:55;;;;;;;6.05;5.47;;;;;;;19.45;91.29;98665.56;4996131;28;20217;-54
2022/06/16 03:43:21;;;;;;;6.60;6.00;;;;;;;19.47;90.67;98661.00;4995878;28;20179;-53
2022/06/16 03:45:46;;;;;;;6.07;5.47;;;;;;;19.43;91.62;98662.25;4996065;28;20266;-54
2022/06/16 03:48:12;;;;;;;5.93;5.43;;;;;;;19.38;91.43;98659.28;4995875;28;20262;-54
2022/06/16 03:50:38;;;;;;;6.90;6.28;;;;;;;19.34;94.35;98669.25;4995662;28;20175;-54
2022/06/16 03:53:04;;;;;;;7.60;6.28;;;;;;;19.39;96.30;98668.78;4995631;28;20682;-54
2022/06/16 03:55:30;;;;;;;6.15;5.75;;;;;;;19.45;95.21;98665.56;4995520;28;20211;-54
2022/06/16 03:57:55;;;;;;;7.03;6.43;;;;;;;19.58;96.20;98668.59;4995566;28;20181;-54
2022/06/16 04:00:22;;;;;;;7.70;7.00;;;;;;;19.72;99.15;98675.91;4995436;28;20181;-54
2022/06/16 04:03:59;;;;;;;10.88;9.52;;;;;;;19.76;100.00;98680.69;4995238;28;20230;-54
2022/06/16 04:05:34;;;;;;;13.48;9.23;;;;;;;19.82;100.00;98677.44;4995351;28;20622;-54
2022/06/16 04:08:00;;;;;;;9.43;8.52;;;;;;;19.90;100.00;98681.91;4995367;28;20269;-54
2022/06/16 04:10:25;;;;;;;9.73;8.70;;;;;;;20.06;100.00;98695.13;4995284;28;20254;-54
2022/06/16 04:12:51;;;;;;;9.55;8.65;;;;;;;20.05;100.00;98688.22;4995273;28;20663;-54
2022/06/16 04:15:16;;;;;;;9.45;8.45;;;;;;;20.03;100.00;98687.53;4994812;28;20202;-53
2022/06/16 04:17:41;;;;;;;10.70;9.20;;;;;;;19.98;100.00;98689.81;4995420;28;20183;-53
2022/06/16 04:20:13;;;;;;;12.55;8.27;;;;;;;19.98;100.00;98684.56;4995134;28;20633;-53
2022/06/16 04:22:39;;;;;;;7.20;6.50;;;;;;;19.98;100.00;98689.81;4995384;28;20159;-53
2022/06/16 04:25:07;;;;;;;8.07;6.72;;;;;;;20.04;94.11;98683.97;4995052;28;20171;-53
2022/06/16 04:27:33;;;;;;;10.43;6.22;;;;;;;20.04;94.21;98689.22;4994924;28;20265;-53
2022/06/16 04:29:58;;;;;;;8.15;6.75;;;;;;;20.11;94.67;98691.06;4994902;28;20210;-53
2022/06/16 04:32:24;;;;;;;8.45;7.07;;;;;;;20.01;96.40;98690.34;4994900;28;20181;-53
2022/06/16 04:34:49;;;;;;;9.30;7.88;;;;;;;19.95;99.47;98684.88;4994894;28;20194;-53
2022/06/16 04:37:15;;;;;;;8.30;7.50;;;;;;;20.01;100.00;98692.97;4995052;28;20175;-53
2022/06/16 04:39:40;;;;;;;7.45;6.32;;;;;;;20.14;94.19;98688.13;4994763;28;20576;-53
2022/06/16 04:42:06;;;;;;;8.23;6.57;;;;;;;20.26;94.26;98693.91;4994776;28;20175;-53
2022/06/16 04:44:33;;;;;;;6.00;5.40;;;;;;;20.20;90.45;98694.56;4993665;28;20179;-53
2022/06/16 04:46:59;;;;;;;6.13;5.20;;;;;;;20.20;88.29;98702.44;4994624;28;20177;-53
2022/06/16 04:49:24;;;;;;;6.40;5.70;;;;;;;20.33;85.95;98714.16;4994856;28;20167;-53
2022/06/16 04:51:51;;;;;;;5.70;5.30;;;;;;;20.33;86.42;98705.47;4994719;28;20202;-54
2022/06/16 04:54:16;;;;;;;6.65;6.05;;;;;;;20.22;87.58;98709.19;4994584;28;20587;-53
2022/06/16 04:56:41;;;;;;;7.75;5.13;;;;;;;20.14;88.58;98710.94;5009490;28;20179;-54
2022/06/16 04:59:07;;;;;;;6.40;5.38;;;;;;;20.21;87.28;98706.69;4994450;28;20178;-53
2022/06/16 05:01:32;;;;;;;6.03;5.53;;;;;;;20.25;87.66;98697.53;4994434;28;20295;-53
2022/06/16 05:03:58;;;;;;;6.53;6.03;;;;;;;20.23;88.94;98705.56;4994180;28;20202;-54
2022/06/16 05:06:23;;;;;;;6.65;6.15;;;;;;;20.29;91.40;98709.38;4993076;28;20618;-53
2022/06/16 05:08:48;;;;;;;8.73;7.78;;;;;;;20.41;91.90;98710.75;4994235;28;20175;-53
2022/06/16 05:11:15;;;;;;;9.68;7.68;;;;;;;20.48;92.66;98709.13;4994180;28;20258;-54
2022/06/16 05:13:41;;;;;;;11.55;9.00;;;;;;;20.46;94.99;98713.72;4994120;28;20574;-53
2022/06/16 05:16:07;;;;;;;15.32;8.35;;;;;;;20.53;95.58;98706.84;4994014;28;20175;-53
2022/06/16 05:18:32;;;;;;;10.32;8.98;;;;;;;20.52;97.02;98695.47;4994305;28;20175;-53
2022/06/16 05:21:05;;;;;;;11.90;10.32;;;;;;;20.65;99.14;98701.13;4992765;28;20547;-54
2022/06/16 05:23:31;;;;;;;14.18;10.40;;;;;;;20.71;99.52;98700.50;4994156;28;20181;-53
2022/06/16 05:25:57;;;;;;;13.07;11.05;;;;;;;20.75;100.00;98699.16;4993208;28;20555;-53
2022/06/16 05:28:22;;;;;;;22.20;10.73;;;;;;;20.59;100.00;98703.56;4994054;28;20175;-54
2022/06/16 05:30:48;;;;;;;18.08;10.75;;;;;;;20.59;100.00;98703.56;4993805;28;20738;-54
2022/06/16 05:33:13;;;;;;;14.95;9.57;;;;;;;20.63;100.00;98702.28;4993682;28;20174;-54
2022/06/16 05:35:39;;;;;;;11.45;9.45;;;;;;;20.67;100.00;98703.56;4993725;28;20201;-54
2022/06/16 05:38:05;;;;;;;16.67;10.40;;;;;;;20.79;98.73;98695.22;4993668;28;20175;-54
2022/06/16 05:40:31;;;;;;;14.60;9.82;;;;;;;20.84;98.42;98700.84;4993621;28;20176;-54
2022/06/16 05:42:57;;;;;;;9.23;7.88;;;;;;;20.80;94.75;98710.03;4993895;28;20182;-54
2022/06/16 05:45:22;;;;;;;8.52;7.25;;;;;;;20.79;92.91;98707.53;4993600;28;20671;-54
2022/06/16 05:47:48;;;;;;;12.45;7.20;;;;;;;20.83;90.09;98708.88;4994022;28;20182;-54
2022/06/16 05:50:16;;;;;;;9.07;6.88;;;;;;;20.95;90.95;98708.44;4993794;28;20178;-54
2022/06/16 05:52:42;;;;;;;7.57;6.97;;;;;;;21.00;88.87;98713.22;4993407;28;20179;-54
2022/06/16 05:55:11;;;;;;;8.18;7.13;;;;;;;21.05;87.49;98714.34;4993377;28;20199;-54
2022/06/16 05:57:36;;;;;;;7.93;7.13;;;;;;;21.07;88.64;98716.84;4993647;28;20174;-54
2022/06/16 06:00:04;;;;;;;9.32;8.10;;;;;;;21.01;91.25;98714.84;4993310;28;20175;-53
2022/06/16 06:02:29;;;;;;;9.10;8.20;;;;;;;20.99;91.54;98714.19;4993111;28;20283;-54
2022/06/16 06:04:55;;;;;;;9.30;8.50;;;;;;;21.14;90.27;98717.81;4993462;28;20257;-54
2022/06/16 06:07:20;;;;;;;9.52;7.88;;;;;;;21.17;88.38;98713.06;4993190;28;20636;-54
2022/06/16 06:17:49;;;;;;;17.38;13.20;;;;;;;21.58;94.54;98721.78;4993340;28;20166;-54
2022/06/16 06:20:14;;;;;;;23.58;15.10;;;;;;;21.71;95.49;98722.13;4992974;28;20602;-54
2022/06/16 06:22:40;;;;;;;20.15;15.10;;;;;;;21.75;96.22;98724.28;4992889;28;20631;-54
2022/06/16 06:25:06;;;;;;;22.90;15.15;;;;;;;21.76;96.59;98719.81;4992879;28;20636;-54
2022/06/16 06:27:38;;;;;;;19.52;15.07;;;;;;;21.81;96.28;98717.50;4992883;28;20175;-54
2022/06/16 06:30:26;;;;;;;20.08;14.40;;;;;;;21.92;95.69;98725.84;4992846;28;20179;-54
2022/06/16 06:32:53;;;;;;;19.23;14.65;;;;;;;22.09;93.96;98726.66;4993067;28;20199;-54
2022/06/16 06:35:19;;;;;;;15.60;13.73;;;;;;;22.19;93.26;98721.97;4992722;28;20234;-54
2022/06/16 06:37:45;;;;;;;18.48;14.30;;;;;;;22.31;92.37;98723.28;4993166;28;20174;-54
2022/06/16 06:40:23;;;;;;;18.55;14.43;;;;;;;22.46;91.93;98722.41;4992643;28;20731;-54
2022/06/16 06:42:49;;;;;;;21.58;15.55;;;;;;;22.63;90.49;98728.44;4993042;28;20167;-54
2022/06/16 06:45:15;;;;;;;22.80;16.08;;;;;;;22.46;91.11;98718.94;4992659;28;20560;-54
2022/06/16 06:47:40;;;;;;;20.77;14.98;;;;;;;22.13;93.79;98720.03;4992916;28;20171;-54
2022/06/16 06:50:06;;;;;;;17.73;14.50;;;;;;;22.07;94.63;98728.63;4992923;28;20175;-54
2022/06/16 06:52:32;;;;;;;18.15;14.13;;;;;;;22.28;93.17;98720.97;4992818;28;20182;-54
2022/06/16 06:54:57;;;;;;;20.55;14.77;;;;;;;22.25;91.96;98723.97;4992545;28;20578;-52
2022/06/16 06:57:28;;;;;;;20.55;15.45;;;;;;;22.40;91.53;98711.69;4992594;28;20167;-53
2022/06/16 06:59:54;;;;;;;17.52;14.52;;;;;;;22.55;90.71;98716.09;4992891;28;20242;-53
2022/06/16 07:02:19;;;;;;;18.70;14.18;;;;;;;22.64;89.55;98715.06;4992448;28;20254;-53
2022/06/16 07:04:45;;;;;;;15.95;14.20;;;;;;;22.68;89.27;98723.47;4992476;28;20187;-53
2022/06/16 07:07:14;;;;;;;18.73;14.65;;;;;;;22.52;89.31;98724.38;4992512;28;20171;-53
2022/06/16 07:09:40;;;;;;;18.95;15.20;;;;;;;22.52;89.73;98726.16;4993003;28;20186;-53
2022/06/16 07:12:13;;;;;;;19.00;14.43;;;;;;;22.74;89.29;98728.88;4992515;28;20171;-56
2022/06/16 07:14:42;;;;;;;26.92;16.33;;;;;;;22.92;87.93;98724.16;4992618;28;20195;-53
2022/06/16 07:17:08;;;;;;;17.42;15.50;;;;;;;23.09;85.94;98724.84;4992498;28;20178;-53
2022/06/16 07:19:35;;;;;;;16.25;14.15;;;;;;;23.17;85.36;98727.44;4992614;28;20175;-53
2022/06/16 07:22:01;;;;;;;17.45;14.57;;;;;;;23.24;83.58;98725.78;4992631;28;20175;-53
2022/06/16 07:24:27;;;;;;;22.67;15.93;;;;;;;23.35;82.12;98727.97;4992656;28;20530;-53
2022/06/16 07:26:52;;;;;;;19.20;15.90;;;;;;;23.38;82.96;98725.81;4991638;28;20245;-53
2022/06/16 07:29:17;;;;;;;23.25;16.38;;;;;;;23.44;83.11;98729.56;4992324;28;20183;-54
2022/06/16 07:31:43;;;;;;;22.15;16.15;;;;;;;23.48;82.42;98729.03;4992289;28;20167;-54
2022/06/16 07:34:09;;;;;;;23.65;16.85;;;;;;;23.49;80.02;98729.84;4992238;28;20266;-53
2022/06/16 07:36:35;;;;;;;24.85;17.77;;;;;;;23.52;80.34;98735.59;4992212;28;20175;-54
2022/06/16 07:39:00;;;;;;;22.77;18.08;;;;;;;23.59;78.96;98727.78;4992120;28;20234;-54
2022/06/16 07:41:31;;;;;;;17.77;13.88;;;;;;;23.63;77.71;98722.75;4992143;28;20178;-54
2022/06/16 07:43:59;;;;;;;18.30;15.73;;;;;;;23.68;77.94;98733.63;4992335;28;20151;-54
2022/06/16 07:46:24;;;;;;;19.83;15.25;;;;;;;23.72;78.28;98725.34;4992531;28;20167;-54
2022/06/16 07:48:51;;;;;;;24.33;17.00;;;;;;;23.75;78.35;98731.91;4993230;28;20541;-54
2022/06/16 07:51:17;;;;;;;18.10;15.38;;;;;;;23.80;76.38;98729.53;4995673;28;20229;-54
2022/06/16 07:53:43;;;;;;;18.52;14.93;;;;;;;23.86;75.22;98728.81;4995580;28;20274;-54
2022/06/16 07:56:08;;;;;;;19.25;16.17;;;;;;;23.87;76.17;98734.94;4995900;28;20690;-53
2022/06/16 07:58:34;;;;;;;22.58;17.52;;;;;;;23.90;77.47;98728.50;4995613;28;20203;-53
2022/06/16 08:00:59;;;;;;;20.70;16.23;;;;;;;23.90;77.17;98726.66;4995505;28;20175;-53
2022/06/16 08:03:28;;;;;;;20.20;16.27;;;;;;;24.00;76.81;98729.06;4995346;28;20220;-53
2022/06/16 08:05:55;;;;;;;21.33;17.25;;;;;;;24.08;76.05;98727.97;4995657;28;20179;-53
2022/06/16 08:08:23;;;;;;;23.65;17.75;;;;;;;24.14;76.64;98732.53;4995411;28;20179;-54
2022/06/16 08:10:52;;;;;;;21.63;16.75;;;;;;;24.25;74.71;98734.72;4995261;28;20262;-53
2022/06/16 08:13:19;;;;;;;23.25;17.92;;;;;;;24.43;74.10;98743.09;4995424;28;20205;-53
2022/06/16 08:15:46;;;;;;;21.40;18.02;;;;;;;24.56;74.79;98737.94;4995458;28;20638;-55
2022/06/16 08:18:17;;;;;;;22.15;17.20;;;;;;;24.72;73.00;98743.06;4995480;28;20183;-54
2022/06/16 08:20:43;;;;;;;22.60;17.52;;;;;;;24.54;73.39;98739.97;4995044;28;20179;-53
2022/06/16 08:23:10;;;;;;;19.13;16.60;;;;;;;24.49;74.24;98729.13;4995112;28;20213;-54
2022/06/16 08:25:36;;;;;;;20.65;16.25;;;;;;;24.61;74.06;98735.59;4995060;28;20790;-53
2022/06/16 08:28:03;;;;;;;22.75;17.40;;;;;;;24.75;72.25;98737.44;4995201;28;20194;-54
2022/06/16 08:30:30;;;;;;;19.95;16.92;;;;;;;24.81;71.93;98730.56;4994967;28;20176;-54
2022/06/16 08:32:56;;;;;;;19.45;16.92;;;;;;;24.92;72.02;98738.84;4994910;28;20665;-54
2022/06/16 08:35:22;;;;;;;21.30;16.33;;;;;;;24.92;73.00;98738.00;4994793;28;20286;-54
2022/06/16 08:37:48;;;;;;;20.65;16.85;;;;;;;24.88;71.45;98734.09;4995108;28;20259;-54
2022/06/16 08:40:15;;;;;;;23.67;17.23;;;;;;;24.82;72.73;98733.03;4995036;28;20190;-54
2022/06/16 08:42:50;;;;;;;20.85;17.70;;;;;;;24.83;73.04;98732.00;5009662;28;20187;-54
2022/06/16 08:45:30;;;;;;;21.38;16.67;;;;;;;24.92;72.75;98733.53;4994981;28;20164;-54
2022/06/16 08:48:22;;;;;;;23.17;17.00;;;;;;;25.01;72.21;98732.41;4994898;28;20168;-54
2022/06/16 08:51:12;;;;;;;20.30;16.83;;;;;;;25.07;72.31;98736.94;4993680;28;20187;-54
2022/06/16 08:53:55;;;;;;;20.42;17.33;;;;;;;25.12;72.45;98734.56;4994622;28;20167;-54
2022/06/16 08:56:38;;;;;;;24.17;17.45;;;;;;;25.05;72.39;98732.84;4994826;28;20306;-54
2022/06/16 08:59:12;;;;;;;27.92;18.05;;;;;;;24.93;72.92;98718.47;4994789;28;20167;-54
2022/06/16 09:01:47;;;;;;;24.95;16.70;;;;;;;25.07;72.61;98723.69;4993391;28;20221;-54
2022/06/16 09:04:48;;;;;;;21.33;17.92;;;;;;;25.17;72.49;98718.91;4994146;28;20214;-55
2022/06/16 09:07:41;;;;;;;20.25;16.48;;;;;;;25.40;72.09;98721.38;4993254;28;20197;-55
2022/06/16 09:10:38;;;;;;;20.60;16.38;;;;;;;25.55;70.97;98720.28;4993848;28;20195;-55
2022/06/16 09:13:31;;;;;;;22.42;16.30;;;;;;;25.62;70.17;98720.34;4994159;28;20160;-55
2022/06/16 09:16:19;;;;;;;18.35;16.38;;;;;;;25.70;69.66;98722.84;4994609;28;20168;-54
2022/06/16 09:18:44;;;;;;;19.05;16.58;;;;;;;25.80;68.09;98721.53;4994061;28;20178;-54
2022/06/16 09:21:25;;;;;;;20.20;16.15;;;;;;;25.55;69.28;98711.53;4994287;28;20175;-54
2022/06/16 09:23:53;;;;;;;21.90;15.90;;;;;;;25.66;70.77;98711.03;4994296;28;20616;-54
2022/06/16 09:26:40;;;;;;;21.02;15.70;;;;;;;25.85;69.72;98716.47;4993944;28;20214;-54
2022/06/16 09:29:21;;;;;;;19.13;15.05;;;;;;;25.86;68.88;98718.09;4993864;28;20163;-54
2022/06/16 09:31:59;;;;;;;22.27;16.02;;;;;;;26.07;68.43;98710.09;4994049;28;20159;-54
2022/06/16 09:34:48;;;;;;;19.02;14.27;;;;;;;26.25;66.81;98704.28;4994145;28;20190;-54
2022/06/16 09:37:25;;;;;;;18.17;14.13;;;;;;;26.31;64.50;98704.28;4993286;28;20187;-54
2022/06/16 09:40:02;;;;;;;16.33;14.38;;;;;;;26.40;66.04;98692.50;4993792;28;20187;-54
2022/06/16 09:42:54;;;;;;;16.02;12.52;;;;;;;26.16;63.90;98703.63;4993847;28;20239;-53
2022/06/16 09:45:41;;;;;;;17.95;13.63;;;;;;;26.09;64.69;98696.63;4993776;28;20183;-54
2022/06/16 09:48:16;;;;;;;17.52;14.48;;;;;;;26.17;64.30;98697.28;4993713;28;20221;-54
2022/06/16 09:50:47;;;;;;;17.25;15.30;;;;;;;26.32;64.87;98691.84;4993379;28;20628;-54
2022/06/16 09:53:41;;;;;;;15.90;12.63;;;;;;;26.37;63.63;98698.19;4993242;28;20234;-54
2022/06/16 09:56:09;;;;;;;18.15;12.85;;;;;;;26.37;63.79;98690.22;4993505;28;20168;-54
2022/06/16 09:58:57;;;;;;;17.00;12.88;;;;;;;26.65;63.78;98690.19;4991930;28;20179;-54
2022/06/16 10:01:27;;;;;;;15.57;12.98;;;;;;;26.87;62.31;98692.50;4993691;28;20690;-54
2022/06/16 10:04:01;;;;;;;15.80;12.63;;;;;;;27.00;61.12;98687.19;4993076;28;20213;-55
2022/06/16 10:06:53;;;;;;;13.70;11.45;;;;;;;26.99;59.80;98685.56;4993530;28;20191;-55
2022/06/16 10:09:23;;;;;;;14.13;11.10;;;;;;;27.09;58.25;98682.50;4992720;28;20306;-53
2022/06/16 10:11:57;;;;;;;13.15;11.30;;;;;;;27.01;58.50;98678.19;4993032;28;20262;-53
2022/06/16 10:14:27;;;;;;;14.30;11.93;;;;;;;26.96;59.33;98680.66;4993020;28;20194;-54
2022/06/16 10:16:58;;;;;;;15.85;12.45;;;;;;;26.84;61.73;98679.63;4992903;28;20179;-54
2022/06/16 10:19:27;;;;;;;14.98;12.32;;;;;;;26.83;60.93;98667.34;4993282;28;20646;-55
2022/06/16 10:21:53;;;;;;;12.93;11.55;;;;;;;26.72;58.43;98677.75;4993231;28;20558;-54
2022/06/16 10:24:23;;;;;;;20.13;11.93;;;;;;;26.78;58.84;98667.16;4992911;28;20674;-54
2022/06/16 10:26:48;;;;;;;12.18;10.63;;;;;;;26.90;57.45;98675.34;4992911;28;20178;-54
2022/06/16 10:29:24;;;;;;;12.88;11.52;;;;;;;27.03;56.72;98662.91;4993056;28;20171;-54
2022/06/16 10:31:51;;;;;;;11.95;10.73;;;;;;;27.07;57.80;98661.47;4992845;28;20181;-55
2022/06/16 10:34:36;;;;;;;14.18;10.82;;;;;;;27.13;60.10;98665.16;4992985;28;20191;-54
2022/06/16 10:37:06;;;;;;;14.40;11.25;;;;;;;27.33;57.85;98661.50;4993107;28;20163;-55
2022/06/16 10:39:40;;;;;;;13.98;11.48;;;;;;;27.57;57.78;98660.88;4993004;28;20310;-55
2022/06/16 10:42:18;;;;;;;13.68;12.23;;;;;;;27.71;54.93;98659.84;4992904;28;20165;-55
2022/06/16 10:44:52;;;;;;;10.95;9.20;;;;;;;27.70;52.24;98649.41;4992934;28;20265;-55
2022/06/16 10:47:23;;;;;;;12.25;9.63;;;;;;;27.75;54.09;98650.41;4992643;28;20163;-54
2022/06/16 10:49:50;;;;;;;11.77;10.60;;;;;;;27.92;53.87;98654.28;4992922;28;20171;-54
2022/06/16 10:52:25;;;;;;;13.43;9.82;;;;;;;28.11;53.30;98650.75;4991351;28;20233;-54
2022/06/16 10:55:11;;;;;;;12.55;11.02;;;;;;;28.16;52.09;98652.81;4992497;28;20202;-55
2022/06/16 10:57:46;;;;;;;12.82;9.73;;;;;;;28.19;51.62;98647.88;4992812;28;20556;-54
2022/06/16 11:00:19;;;;;;;10.82;9.73;;;;;;;28.51;52.37;98646.94;4992569;28;20178;-54
2022/06/16 11:03:05;;;;;;;11.68;9.77;;;;;;;28.72;50.64;98648.47;4992355;28;20194;-54
2022/06/16 11:05:52;;;;;;;10.70;9.48;;;;;;;28.91;48.13;98648.34;4992490;28;20163;-55
2022/06/16 11:08:20;;;;;;;11.70;9.07;;;;;;;28.93;48.36;98645.47;4992419;28;20232;-55
2022/06/16 11:10:56;;;;;;;10.18;9.13;;;;;;;28.95;49.15;98649.59;4992613;28;20175;-55
2022/06/16 11:13:52;;;;;;;16.70;10.05;;;;;;;29.18;49.09;98649.81;5007359;28;20179;-55
2022/06/16 11:16:37;;;;;;;9.70;7.68;;;;;;;29.30;48.19;98648.09;5006974;28;20199;-54
2022/06/16 11:19:08;;;;;;;8.75;7.88;;;;;;;29.21;47.78;98644.03;4990677;28;20159;-55
2022/06/16 11:21:34;;;;;;;7.85;7.10;;;;;;;29.24;45.65;98638.28;4992487;28;20195;-56
2022/06/16 11:24:04;;;;;;;8.18;6.60;;;;;;;29.26;45.07;98638.88;4993633;28;20187;-54
2022/06/16 11:26:31;;;;;;;6.47;5.70;;;;;;;29.10;44.62;98635.94;4996484;28;20659;-54
2022/06/16 11:29:15;;;;;;;6.35;5.85;;;;;;;28.92;46.47;98633.19;4996082;28;20187;-55
2022/06/16 11:31:47;;;;;;;7.38;6.78;;;;;;;29.03;46.99;98630.66;4996379;28;20554;-55
2022/06/16 11:34:23;;;;;;;6.82;6.10;;;;;;;29.33;46.94;98631.63;4996078;28;20287;-54
2022/06/16 11:36:54;;;;;;;7.03;6.50;;;;;;;29.60;45.50;98633.06;4996245;28;20711;-54
2022/06/16 11:39:25;;;;;;;7.32;5.97;;;;;;;29.76;44.83;98616.50;4995938;28;20172;-54
2022/06/16 11:41:53;;;;;;;7.03;6.15;;;;;;;29.68;45.34;98619.44;4995958;28;20183;-54
2022/06/16 11:44:33;;;;;;;7.55;5.90;;;;;;;29.82;43.36;98618.28;4995616;28;20249;-54
2022/06/16 11:47:12;;;;;;;6.75;5.63;;;;;;;29.97;43.71;98613.38;4995754;28;20229;-54
2022/06/16 11:49:46;;;;;;;6.20;5.70;;;;;;;30.08;42.83;98615.28;4995750;28;20636;-55
2022/06/16 11:52:25;;;;;;;6.32;5.72;;;;;;;30.05;43.76;98607.75;4995629;28;20644;-54
2022/06/16 11:55:28;;;;;;;5.65;4.90;;;;;;;30.15;42.28;98610.72;4996059;28;20191;-54
2022/06/16 11:58:12;;;;;;;7.63;4.88;;;;;;;30.11;41.88;98617.56;4995881;28;20613;-54
2022/06/16 12:01:02;;;;;;;5.60;3.90;;;;;;;29.94;40.62;98610.31;4995561;28;20170;-54
2022/06/16 12:03:58;;;;;;;6.18;5.65;;;;;;;29.97;42.30;98608.03;4995294;28;20779;-54
2022/06/16 12:06:35;;;;;;;5.82;5.13;;;;;;;30.13;41.15;98602.13;4995669;28;20171;-54